createdAt,value
2016-11-12T00:00:00.044Z,1010.45
2016-11-12T00:00:21.782Z,1010.44
2016-11-12T00:00:43.507Z,1010.46
2016-11-12T00:01:05.261Z,1010.53
2016-11-12T00:01:27.004Z,1010.43
2016-11-12T00:01:48.731Z,1010.40
2016-11-12T00:02:10.456Z,1010.42
2016-11-12T00:02:32.200Z,1010.38
2016-11-12T00:02:53.943Z,1010.43
2016-11-12T00:03:15.666Z,1010.48
2016-11-12T00:03:39.619Z,1010.46
2016-11-12T00:04:01.353Z,1010.40
2016-11-12T00:04:23.071Z,1010.33
2016-11-12T00:04:44.795Z,1010.52
2016-11-12T00:05:06.543Z,1010.48
2016-11-12T00:05:28.407Z,1010.37
2016-11-12T00:05:50.134Z,1010.37
2016-11-12T00:06:11.861Z,1010.33
2016-11-12T00:06:33.590Z,1010.27
2016-11-12T00:06:55.317Z,1010.37
2016-11-12T00:07:17.079Z,1010.37
2016-11-12T00:07:38.876Z,1010.36
2016-11-12T00:08:00.605Z,1010.41
2016-11-12T00:08:22.335Z,1010.45
2016-11-12T00:08:44.065Z,1010.49
2016-11-12T00:09:05.786Z,1010.44
2016-11-12T00:09:27.518Z,1010.38
2016-11-12T00:09:49.247Z,1010.38
2016-11-12T00:10:10.980Z,1010.47
2016-11-12T00:10:32.707Z,1010.45
2016-11-12T00:10:54.434Z,1010.46
2016-11-12T00:11:16.278Z,1010.48
2016-11-12T00:11:38.012Z,1010.55
2016-11-12T00:11:59.748Z,1010.53
2016-11-12T00:12:21.484Z,1010.53
2016-11-12T00:12:43.215Z,1010.52
2016-11-12T00:13:04.944Z,1010.49
2016-11-12T00:13:26.669Z,1010.49
2016-11-12T00:13:48.398Z,1010.41
2016-11-12T00:14:10.137Z,1010.43
2016-11-12T00:14:31.990Z,1010.32
2016-11-12T00:14:53.715Z,1010.26
2016-11-12T00:15:15.442Z,1010.34
2016-11-12T00:15:37.183Z,1010.27
2016-11-12T00:15:58.914Z,1010.36
2016-11-12T00:16:20.640Z,1010.32
2016-11-12T00:16:42.360Z,1010.38
2016-11-12T00:17:04.100Z,1010.44
2016-11-12T00:17:25.906Z,1010.38
2016-11-12T00:17:47.624Z,1010.37
2016-11-12T00:18:09.358Z,1010.28
2016-11-12T00:18:31.233Z,1010.28
2016-11-12T00:18:52.969Z,1010.35
2016-11-12T00:19:14.699Z,1010.35
2016-11-12T00:19:36.432Z,1010.47
2016-11-12T00:19:58.172Z,1010.42
2016-11-12T00:20:19.899Z,1010.42
2016-11-12T00:20:41.648Z,1010.45
2016-11-12T00:21:03.387Z,1010.42
2016-11-12T00:21:25.112Z,1010.30
2016-11-12T00:21:46.835Z,1010.25
2016-11-12T00:22:08.562Z,1010.26
2016-11-12T00:22:30.293Z,1010.41
2016-11-12T00:22:52.034Z,1010.33
2016-11-12T00:23:13.758Z,1010.35
2016-11-12T00:23:35.510Z,1010.45
2016-11-12T00:23:57.246Z,1010.51
2016-11-12T00:24:18.977Z,1010.42
2016-11-12T00:24:40.712Z,1010.34
2016-11-12T00:25:02.463Z,1010.35
2016-11-12T00:25:24.189Z,1010.35
2016-11-12T00:25:45.929Z,1010.31
2016-11-12T00:26:07.652Z,1010.36
2016-11-12T00:26:29.391Z,1010.41
2016-11-12T00:26:51.122Z,1010.34
2016-11-12T00:27:12.851Z,1010.24
2016-11-12T00:27:34.581Z,1010.27
2016-11-12T00:27:56.317Z,1010.41
2016-11-12T00:28:18.056Z,1010.37
2016-11-12T00:28:39.785Z,1010.32
2016-11-12T00:29:01.516Z,1010.41
2016-11-12T00:29:23.251Z,1010.45
2016-11-12T00:29:44.984Z,1010.32
2016-11-12T00:30:06.722Z,1010.41
2016-11-12T00:30:28.467Z,1010.46
2016-11-12T00:30:50.206Z,1010.51
2016-11-12T00:31:11.987Z,1010.34
2016-11-12T00:31:33.716Z,1010.43
2016-11-12T00:31:55.468Z,1010.40
2016-11-12T00:32:17.197Z,1010.45
2016-11-12T00:32:38.935Z,1010.49
2016-11-12T00:33:00.662Z,1010.38
2016-11-12T00:33:22.397Z,1010.40
2016-11-12T00:33:44.120Z,1010.49
2016-11-12T00:34:05.849Z,1010.57
2016-11-12T00:34:27.583Z,1010.42
2016-11-12T00:34:49.303Z,1010.41
2016-11-12T00:35:11.030Z,1010.26
2016-11-12T00:35:32.763Z,1010.38
2016-11-12T00:35:54.488Z,1010.42
2016-11-12T00:36:16.239Z,1010.32
2016-11-12T00:36:37.975Z,1010.47
2016-11-12T00:36:59.693Z,1010.50
2016-11-12T00:37:21.424Z,1010.50
2016-11-12T00:37:43.179Z,1010.48
2016-11-12T00:38:04.903Z,1010.53
2016-11-12T00:38:26.631Z,1010.47
2016-11-12T00:38:48.357Z,1010.37
2016-11-12T00:39:10.077Z,1010.32
2016-11-12T00:39:31.797Z,1010.46
2016-11-12T00:39:53.531Z,1010.43
2016-11-12T00:40:15.258Z,1010.58
2016-11-12T00:40:36.985Z,1010.37
2016-11-12T00:40:58.710Z,1010.33
2016-11-12T00:41:20.429Z,1010.38
2016-11-12T00:41:42.166Z,1010.50
2016-11-12T00:42:04.023Z,1010.37
2016-11-12T00:42:25.749Z,1010.33
2016-11-12T00:42:47.487Z,1010.41
2016-11-12T00:43:09.214Z,1010.53
2016-11-12T00:43:30.950Z,1010.46
2016-11-12T00:43:52.695Z,1010.60
2016-11-12T00:44:14.410Z,1010.55
2016-11-12T00:44:36.164Z,1010.54
2016-11-12T00:44:57.883Z,1010.48
2016-11-12T00:45:19.632Z,1010.49
2016-11-12T00:45:41.359Z,1010.49
2016-11-12T00:46:03.092Z,1010.42
2016-11-12T00:46:24.948Z,1010.47
2016-11-12T00:46:46.681Z,1010.39
2016-11-12T00:47:08.427Z,1010.50
2016-11-12T00:47:30.153Z,1010.48
2016-11-12T00:47:51.877Z,1010.54
2016-11-12T00:48:13.618Z,1010.51
2016-11-12T00:48:35.363Z,1010.37
2016-11-12T00:48:57.080Z,1010.39
2016-11-12T00:49:18.819Z,1010.40
2016-11-12T00:49:40.548Z,1010.49
2016-11-12T00:50:02.267Z,1010.39
2016-11-12T00:50:23.989Z,1010.50
2016-11-12T00:50:45.717Z,1010.43
2016-11-12T00:51:07.448Z,1010.41
2016-11-12T00:51:29.184Z,1010.41
2016-11-12T00:51:50.910Z,1010.42
2016-11-12T00:52:12.630Z,1010.41
2016-11-12T00:52:34.383Z,1010.43
2016-11-12T00:52:56.108Z,1010.44
2016-11-12T00:53:17.834Z,1010.41
2016-11-12T00:53:39.560Z,1010.45
2016-11-12T00:54:01.290Z,1010.40
2016-11-12T00:54:23.019Z,1010.42
2016-11-12T00:54:44.866Z,1010.41
2016-11-12T00:55:06.617Z,1010.45
2016-11-12T00:55:28.350Z,1010.44
2016-11-12T00:55:50.078Z,1010.37
2016-11-12T00:56:11.812Z,1010.42
2016-11-12T00:56:33.536Z,1010.40
2016-11-12T00:56:55.264Z,1010.55
2016-11-12T00:57:17.005Z,1010.53
2016-11-12T00:57:38.750Z,1010.50
2016-11-12T00:58:00.483Z,1010.49
2016-11-12T00:58:22.218Z,1010.49
2016-11-12T00:58:43.962Z,1010.50
2016-11-12T00:59:05.692Z,1010.52
2016-11-12T00:59:27.468Z,1010.54
2016-11-12T00:59:49.174Z,1010.45
2016-11-12T01:00:10.904Z,1010.43
2016-11-12T01:00:32.622Z,1010.39
2016-11-12T01:00:54.350Z,1010.46
2016-11-12T01:01:16.199Z,1010.36
2016-11-12T01:01:37.928Z,1010.36
2016-11-12T01:01:59.651Z,1010.33
2016-11-12T01:02:21.388Z,1010.34
2016-11-12T01:02:43.113Z,1010.55
2016-11-12T01:03:04.850Z,1010.39
2016-11-12T01:03:26.575Z,1010.48
2016-11-12T01:03:48.515Z,1010.50
2016-11-12T01:04:10.262Z,1010.53
2016-11-12T01:04:31.978Z,1010.50
2016-11-12T01:04:53.697Z,1010.61
2016-11-12T01:05:15.432Z,1010.59
2016-11-12T01:05:37.173Z,1010.56
2016-11-12T01:05:58.901Z,1010.51
2016-11-12T01:06:20.623Z,1010.56
2016-11-12T01:06:42.344Z,1010.66
2016-11-12T01:07:04.079Z,1010.68
2016-11-12T01:07:25.809Z,1010.68
2016-11-12T01:07:47.536Z,1010.62
2016-11-12T01:08:09.287Z,1010.57
2016-11-12T01:08:31.015Z,1010.59
2016-11-12T01:08:52.749Z,1010.56
2016-11-12T01:09:14.459Z,1010.57
2016-11-12T01:09:36.198Z,1010.57
2016-11-12T01:09:57.929Z,1010.46
2016-11-12T01:10:19.656Z,1010.50
2016-11-12T01:10:41.380Z,1010.49
2016-11-12T01:11:03.108Z,1010.48
2016-11-12T01:11:24.831Z,1010.44
2016-11-12T01:11:46.557Z,1010.56
2016-11-12T01:12:08.291Z,1010.47
2016-11-12T01:12:30.029Z,1010.67
2016-11-12T01:12:51.755Z,1010.88
2016-11-12T01:13:13.486Z,1010.83
2016-11-12T01:13:35.233Z,1010.73
2016-11-12T01:13:56.957Z,1010.66
2016-11-12T01:14:18.692Z,1010.69
2016-11-12T01:14:40.422Z,1010.65
2016-11-12T01:15:06.920Z,1010.53
2016-11-12T01:15:28.650Z,1010.54
2016-11-12T01:15:50.398Z,1010.56
2016-11-12T01:16:12.206Z,1010.50
2016-11-12T01:16:33.925Z,1010.58
2016-11-12T01:16:55.667Z,1010.55
2016-11-12T01:17:17.391Z,1010.52
2016-11-12T01:17:39.130Z,1010.56
2016-11-12T01:18:00.853Z,1010.55
2016-11-12T01:18:22.578Z,1010.58
2016-11-12T01:18:44.307Z,1010.56
2016-11-12T01:19:06.035Z,1010.57
2016-11-12T01:19:27.755Z,1010.63
2016-11-12T01:19:49.483Z,1010.62
2016-11-12T01:20:11.202Z,1010.60
2016-11-12T01:20:32.926Z,1010.55
2016-11-12T01:20:54.647Z,1010.69
2016-11-12T01:21:16.379Z,1010.65
2016-11-12T01:21:38.108Z,1010.66
2016-11-12T01:21:59.837Z,1010.70
2016-11-12T01:22:21.578Z,1010.52
2016-11-12T01:22:43.306Z,1010.66
2016-11-12T01:23:05.040Z,1010.71
2016-11-12T01:23:26.822Z,1010.70
2016-11-12T01:23:48.546Z,1010.72
2016-11-12T01:24:10.275Z,1010.58
2016-11-12T01:24:32.017Z,1010.72
2016-11-12T01:24:53.750Z,1010.78
2016-11-12T01:25:15.483Z,1010.73
2016-11-12T01:25:37.206Z,1010.78
2016-11-12T01:25:58.930Z,1010.78
2016-11-12T01:26:20.670Z,1010.73
2016-11-12T01:26:42.448Z,1010.63
2016-11-12T01:27:04.191Z,1010.71
2016-11-12T01:27:25.923Z,1010.69
2016-11-12T01:27:47.642Z,1010.69
2016-11-12T01:28:09.368Z,1010.67
2016-11-12T01:28:31.095Z,1010.72
2016-11-12T01:28:52.828Z,1010.61
2016-11-12T01:29:14.564Z,1010.52
2016-11-12T01:29:36.292Z,1010.63
2016-11-12T01:29:58.029Z,1010.73
2016-11-12T01:30:19.809Z,1010.70
2016-11-12T01:30:41.533Z,1010.60
2016-11-12T01:31:03.266Z,1010.58
2016-11-12T01:31:25.093Z,1010.50
2016-11-12T01:31:46.831Z,1010.55
2016-11-12T01:32:08.545Z,1010.70
2016-11-12T01:32:30.278Z,1010.75
2016-11-12T01:32:52.016Z,1010.70
2016-11-12T01:33:13.741Z,1010.71
2016-11-12T01:33:35.473Z,1010.67
2016-11-12T01:33:57.206Z,1010.63
2016-11-12T01:34:18.935Z,1010.67
2016-11-12T01:34:40.674Z,1010.76
2016-11-12T01:35:02.409Z,1010.73
2016-11-12T01:35:24.156Z,1010.74
2016-11-12T01:35:45.926Z,1010.78
2016-11-12T01:36:07.665Z,1010.67
2016-11-12T01:36:29.401Z,1010.72
2016-11-12T01:36:51.133Z,1010.71
2016-11-12T01:37:12.867Z,1010.69
2016-11-12T01:37:34.600Z,1010.69
2016-11-12T01:37:56.330Z,1010.63
2016-11-12T01:38:18.055Z,1010.71
2016-11-12T01:38:39.774Z,1010.84
2016-11-12T01:39:01.495Z,1010.76
2016-11-12T01:39:23.218Z,1010.81
2016-11-12T01:39:44.940Z,1010.67
2016-11-12T01:40:06.672Z,1010.70
2016-11-12T01:40:28.421Z,1010.67
2016-11-12T01:40:50.166Z,1010.69
2016-11-12T01:41:14.480Z,1010.75
2016-11-12T01:41:36.197Z,1010.71
2016-11-12T01:41:57.921Z,1010.73
2016-11-12T01:42:19.646Z,1010.75
2016-11-12T01:42:41.385Z,1010.73
2016-11-12T01:43:03.110Z,1010.76
2016-11-12T01:43:24.837Z,1010.70
2016-11-12T01:43:46.578Z,1010.58
2016-11-12T01:44:08.304Z,1010.57
2016-11-12T01:44:30.036Z,1010.67
2016-11-12T01:44:51.768Z,1010.75
2016-11-12T01:45:13.493Z,1010.67
2016-11-12T01:45:35.218Z,1010.65
2016-11-12T01:45:56.938Z,1010.68
2016-11-12T01:46:18.662Z,1010.72
2016-11-12T01:46:40.400Z,1010.81
2016-11-12T01:47:02.124Z,1011.00
2016-11-12T01:47:23.845Z,1010.94
2016-11-12T01:47:45.572Z,1010.90
2016-11-12T01:48:07.306Z,1010.84
2016-11-12T01:48:29.058Z,1010.81
2016-11-12T01:48:50.782Z,1010.81
2016-11-12T01:49:12.524Z,1010.70
2016-11-12T01:49:34.246Z,1010.62
2016-11-12T01:49:55.981Z,1010.53
2016-11-12T01:50:17.715Z,1010.56
2016-11-12T01:50:39.438Z,1010.57
2016-11-12T01:51:01.168Z,1010.49
2016-11-12T01:51:23.060Z,1010.73
2016-11-12T01:51:44.780Z,1010.61
2016-11-12T01:52:06.522Z,1010.63
2016-11-12T01:52:28.245Z,1010.73
2016-11-12T01:52:49.968Z,1010.72
2016-11-12T01:53:11.692Z,1010.73
2016-11-12T01:53:33.422Z,1010.76
2016-11-12T01:53:55.148Z,1010.67
2016-11-12T01:54:16.867Z,1010.65
2016-11-12T01:54:38.747Z,1010.75
2016-11-12T01:55:00.461Z,1010.78
2016-11-12T01:55:22.182Z,1010.71
2016-11-12T01:55:43.906Z,1010.72
2016-11-12T01:56:05.702Z,1010.50
2016-11-12T01:56:27.421Z,1010.65
2016-11-12T01:56:49.149Z,1010.62
2016-11-12T01:57:10.870Z,1010.51
2016-11-12T01:57:32.597Z,1010.52
2016-11-12T01:57:54.317Z,1010.51
2016-11-12T01:58:16.056Z,1010.59
2016-11-12T01:58:37.784Z,1010.65
2016-11-12T01:58:59.584Z,1010.68
2016-11-12T01:59:21.291Z,1010.70
2016-11-12T01:59:43.012Z,1010.72
2016-11-12T02:00:07.561Z,1010.67
2016-11-12T02:00:29.284Z,1010.55
2016-11-12T02:00:51.005Z,1010.58
2016-11-12T02:01:12.723Z,1010.62
2016-11-12T02:01:34.456Z,1010.63
2016-11-12T02:01:56.174Z,1010.61
2016-11-12T02:02:17.914Z,1010.66
2016-11-12T02:02:39.637Z,1010.68
2016-11-12T02:03:01.365Z,1010.71
2016-11-12T02:03:23.100Z,1010.67
2016-11-12T02:03:44.825Z,1010.57
2016-11-12T02:04:06.554Z,1010.55
2016-11-12T02:04:28.311Z,1010.62
2016-11-12T02:04:50.052Z,1010.53
2016-11-12T02:05:11.775Z,1010.70
2016-11-12T02:05:33.499Z,1010.68
2016-11-12T02:05:55.226Z,1010.54
2016-11-12T02:06:16.950Z,1010.61
2016-11-12T02:06:38.697Z,1010.68
2016-11-12T02:07:00.396Z,1010.50
2016-11-12T02:07:22.123Z,1010.51
2016-11-12T02:07:43.848Z,1010.57
2016-11-12T02:08:05.571Z,1010.61
2016-11-12T02:08:27.300Z,1010.49
2016-11-12T02:08:49.061Z,1010.45
2016-11-12T02:09:10.773Z,1010.51
2016-11-12T02:09:32.509Z,1010.57
2016-11-12T02:09:54.228Z,1010.48
2016-11-12T02:10:20.763Z,1010.53
2016-11-12T02:10:42.483Z,1010.57
2016-11-12T02:11:04.224Z,1010.61
2016-11-12T02:11:25.944Z,1010.53
2016-11-12T02:11:47.673Z,1010.60
2016-11-12T02:12:09.396Z,1010.67
2016-11-12T02:12:31.113Z,1010.60
2016-11-12T02:12:52.850Z,1010.64
2016-11-12T02:13:14.575Z,1010.62
2016-11-12T02:13:36.306Z,1010.54
2016-11-12T02:13:58.025Z,1010.59
2016-11-12T02:14:19.811Z,1010.67
2016-11-12T02:14:41.532Z,1010.54
2016-11-12T02:15:03.263Z,1010.66
2016-11-12T02:15:24.991Z,1010.72
2016-11-12T02:15:46.713Z,1010.68
2016-11-12T02:16:08.444Z,1010.63
2016-11-12T02:16:30.160Z,1010.71
2016-11-12T02:16:51.897Z,1010.59
2016-11-12T02:17:13.627Z,1010.53
2016-11-12T02:17:35.351Z,1010.47
2016-11-12T02:17:57.112Z,1010.44
2016-11-12T02:18:18.844Z,1010.39
2016-11-12T02:18:40.558Z,1010.55
2016-11-12T02:19:02.294Z,1010.62
2016-11-12T02:19:24.023Z,1010.61
2016-11-12T02:19:45.749Z,1010.55
2016-11-12T02:20:07.475Z,1010.57
2016-11-12T02:20:29.202Z,1010.52
2016-11-12T02:20:50.984Z,1010.45
2016-11-12T02:21:12.714Z,1010.49
2016-11-12T02:21:34.436Z,1010.47
2016-11-12T02:21:56.165Z,1010.37
2016-11-12T02:22:17.883Z,1010.56
2016-11-12T02:22:39.602Z,1010.67
2016-11-12T02:23:01.339Z,1010.66
2016-11-12T02:23:23.069Z,1010.57
2016-11-12T02:23:44.796Z,1010.57
2016-11-12T02:24:06.516Z,1010.58
2016-11-12T02:24:31.019Z,1010.52
2016-11-12T02:24:52.752Z,1010.48
2016-11-12T02:25:14.460Z,1010.40
2016-11-12T02:25:36.183Z,1010.46
2016-11-12T02:25:57.909Z,1010.44
2016-11-12T02:26:19.636Z,1010.42
2016-11-12T02:26:41.362Z,1010.36
2016-11-12T02:27:03.097Z,1010.44
2016-11-12T02:27:24.814Z,1010.53
2016-11-12T02:27:46.547Z,1010.56
2016-11-12T02:28:08.263Z,1010.64
2016-11-12T02:28:29.990Z,1010.58
2016-11-12T02:28:51.718Z,1010.55
2016-11-12T02:29:13.461Z,1010.54
2016-11-12T02:29:35.189Z,1010.53
2016-11-12T02:29:56.900Z,1010.47
2016-11-12T02:30:18.627Z,1010.43
2016-11-12T02:30:40.347Z,1010.49
2016-11-12T02:31:02.073Z,1010.41
2016-11-12T02:31:23.804Z,1010.48
2016-11-12T02:31:45.523Z,1010.51
2016-11-12T02:32:07.247Z,1010.51
2016-11-12T02:32:28.974Z,1010.53
2016-11-12T02:32:50.713Z,1010.48
2016-11-12T02:33:12.440Z,1010.58
2016-11-12T02:33:34.159Z,1010.64
2016-11-12T02:33:55.885Z,1010.62
2016-11-12T02:34:17.608Z,1010.58
2016-11-12T02:34:39.343Z,1010.67
2016-11-12T02:35:01.073Z,1010.71
2016-11-12T02:35:22.838Z,1010.64
2016-11-12T02:35:44.572Z,1010.62
2016-11-12T02:36:06.348Z,1010.59
2016-11-12T02:36:28.076Z,1010.59
2016-11-12T02:36:49.806Z,1010.56
2016-11-12T02:37:11.530Z,1010.64
2016-11-12T02:37:33.263Z,1010.58
2016-11-12T02:37:54.986Z,1010.63
2016-11-12T02:38:16.713Z,1010.56
2016-11-12T02:38:38.447Z,1010.54
2016-11-12T02:39:00.171Z,1010.62
2016-11-12T02:39:21.903Z,1010.54
2016-11-12T02:39:43.634Z,1010.53
2016-11-12T02:40:05.380Z,1010.59
2016-11-12T02:40:27.151Z,1010.59
2016-11-12T02:40:48.872Z,1010.70
2016-11-12T02:41:10.597Z,1010.62
2016-11-12T02:41:32.320Z,1010.70
2016-11-12T02:41:54.044Z,1010.67
2016-11-12T02:42:15.771Z,1010.70
2016-11-12T02:42:37.506Z,1010.72
2016-11-12T02:42:59.244Z,1010.69
2016-11-12T02:43:20.977Z,1010.70
2016-11-12T02:43:42.697Z,1010.68
2016-11-12T02:44:04.416Z,1010.57
2016-11-12T02:44:26.136Z,1010.68
2016-11-12T02:44:47.868Z,1010.52
2016-11-12T02:45:09.607Z,1010.53
2016-11-12T02:45:31.346Z,1010.68
2016-11-12T02:45:53.066Z,1010.84
2016-11-12T02:46:14.798Z,1010.71
2016-11-12T02:46:36.732Z,1010.62
2016-11-12T02:46:58.449Z,1010.55
2016-11-12T02:47:20.173Z,1010.57
2016-11-12T02:47:41.895Z,1010.55
2016-11-12T02:48:03.678Z,1010.59
2016-11-12T02:48:25.402Z,1010.77
2016-11-12T02:48:47.150Z,1010.71
2016-11-12T02:49:08.879Z,1010.63
2016-11-12T02:49:30.610Z,1010.70
2016-11-12T02:49:52.339Z,1010.66
2016-11-12T02:50:14.071Z,1010.62
2016-11-12T02:50:35.794Z,1010.63
2016-11-12T02:50:57.525Z,1010.77
2016-11-12T02:51:19.324Z,1010.72
2016-11-12T02:51:41.053Z,1010.68
2016-11-12T02:52:02.798Z,1010.73
2016-11-12T02:52:24.518Z,1010.73
2016-11-12T02:52:46.243Z,1010.65
2016-11-12T02:53:07.963Z,1010.68
2016-11-12T02:53:29.696Z,1010.55
2016-11-12T02:53:51.417Z,1010.60
2016-11-12T02:54:13.142Z,1010.59
2016-11-12T02:54:34.916Z,1010.64
2016-11-12T02:54:56.636Z,1010.60
2016-11-12T02:55:18.361Z,1010.59
2016-11-12T02:55:40.151Z,1010.62
2016-11-12T02:56:01.891Z,1010.69
2016-11-12T02:56:23.624Z,1010.56
2016-11-12T02:56:45.352Z,1010.71
2016-11-12T02:57:07.083Z,1010.53
2016-11-12T02:57:28.805Z,1010.71
2016-11-12T02:57:50.565Z,1010.60
2016-11-12T02:58:12.294Z,1010.63
2016-11-12T02:58:34.027Z,1010.72
2016-11-12T02:58:55.744Z,1010.66
2016-11-12T02:59:17.480Z,1010.62
2016-11-12T02:59:39.212Z,1010.75
2016-11-12T03:00:00.974Z,1010.64
2016-11-12T03:00:22.715Z,1010.59
2016-11-12T03:00:44.472Z,1010.63
2016-11-12T03:01:06.194Z,1010.76
2016-11-12T03:01:27.929Z,1010.71
2016-11-12T03:01:49.653Z,1010.75
2016-11-12T03:02:11.378Z,1010.73
2016-11-12T03:02:33.103Z,1010.70
2016-11-12T03:02:57.362Z,1010.70
2016-11-12T03:03:19.095Z,1010.58
2016-11-12T03:03:40.819Z,1010.57
2016-11-12T03:04:02.544Z,1010.65
2016-11-12T03:04:24.271Z,1010.53
2016-11-12T03:04:46.013Z,1010.66
2016-11-12T03:05:07.738Z,1010.73
2016-11-12T03:05:29.463Z,1010.70
2016-11-12T03:05:51.204Z,1010.64
2016-11-12T03:06:12.924Z,1010.54
2016-11-12T03:06:34.670Z,1010.69
2016-11-12T03:06:56.403Z,1010.70
2016-11-12T03:07:18.132Z,1010.64
2016-11-12T03:07:39.863Z,1010.71
2016-11-12T03:08:01.603Z,1010.74
2016-11-12T03:08:23.333Z,1010.64
2016-11-12T03:08:45.076Z,1010.65
2016-11-12T03:09:06.802Z,1010.59
2016-11-12T03:09:28.531Z,1010.59
2016-11-12T03:09:50.261Z,1010.65
2016-11-12T03:10:11.980Z,1010.71
2016-11-12T03:10:33.710Z,1010.52
2016-11-12T03:10:55.429Z,1010.68
2016-11-12T03:11:17.257Z,1010.49
2016-11-12T03:11:38.985Z,1010.64
2016-11-12T03:12:00.715Z,1010.59
2016-11-12T03:12:22.444Z,1010.61
2016-11-12T03:12:44.180Z,1010.63
2016-11-12T03:13:05.905Z,1010.66
2016-11-12T03:13:27.636Z,1010.67
2016-11-12T03:13:49.371Z,1010.61
2016-11-12T03:14:11.092Z,1010.65
2016-11-12T03:14:32.820Z,1010.72
2016-11-12T03:14:54.552Z,1010.71
2016-11-12T03:15:16.277Z,1010.64
2016-11-12T03:15:37.998Z,1010.65
2016-11-12T03:15:59.799Z,1010.66
2016-11-12T03:16:21.530Z,1010.80
2016-11-12T03:16:43.266Z,1010.75
2016-11-12T03:17:04.985Z,1010.76
2016-11-12T03:17:26.820Z,1010.81
2016-11-12T03:17:48.483Z,1010.77
2016-11-12T03:18:10.217Z,1010.77
2016-11-12T03:18:31.932Z,1010.78
2016-11-12T03:18:53.657Z,1010.62
2016-11-12T03:19:15.380Z,1010.65
2016-11-12T03:19:37.106Z,1010.69
2016-11-12T03:19:58.840Z,1010.70
2016-11-12T03:20:20.609Z,1010.62
2016-11-12T03:21:08.834Z,1010.67
2016-11-12T03:21:30.677Z,1010.66
2016-11-12T03:21:52.402Z,1010.76
2016-11-12T03:22:14.160Z,1010.80
2016-11-12T03:22:35.896Z,1010.78
2016-11-12T03:22:57.622Z,1010.73
2016-11-12T03:23:19.349Z,1010.76
2016-11-12T03:23:41.073Z,1010.80
2016-11-12T03:24:02.827Z,1010.69
2016-11-12T03:24:24.556Z,1010.71
2016-11-12T03:24:46.287Z,1010.62
2016-11-12T03:25:08.010Z,1010.77
2016-11-12T03:25:29.736Z,1010.79
2016-11-12T03:25:51.474Z,1010.77
2016-11-12T03:26:13.195Z,1010.73
2016-11-12T03:26:34.927Z,1010.68
2016-11-12T03:26:56.647Z,1010.71
2016-11-12T03:27:18.369Z,1010.73
2016-11-12T03:27:40.089Z,1010.66
2016-11-12T03:28:01.820Z,1010.68
2016-11-12T03:28:23.586Z,1010.74
2016-11-12T03:28:45.317Z,1010.76
2016-11-12T03:29:07.049Z,1010.80
2016-11-12T03:29:28.778Z,1010.75
2016-11-12T03:29:50.499Z,1010.75
2016-11-12T03:30:12.229Z,1010.70
2016-11-12T03:30:33.961Z,1010.60
2016-11-12T03:30:55.711Z,1010.59
2016-11-12T03:31:17.430Z,1010.75
2016-11-12T03:31:39.164Z,1010.67
2016-11-12T03:32:00.882Z,1010.72
2016-11-12T03:32:22.612Z,1010.72
2016-11-12T03:32:44.352Z,1010.65
2016-11-12T03:33:06.081Z,1010.66
2016-11-12T03:33:27.816Z,1010.78
2016-11-12T03:33:49.541Z,1010.75
2016-11-12T03:34:11.266Z,1010.76
2016-11-12T03:34:33.000Z,1010.66
2016-11-12T03:34:54.723Z,1010.70
2016-11-12T03:35:16.459Z,1010.76
2016-11-12T03:35:38.186Z,1010.74
2016-11-12T03:35:59.914Z,1010.70
2016-11-12T03:36:21.667Z,1010.64
2016-11-12T03:36:43.398Z,1010.67
2016-11-12T03:37:05.140Z,1010.68
2016-11-12T03:37:26.863Z,1010.84
2016-11-12T03:37:48.598Z,1010.73
2016-11-12T03:38:10.327Z,1010.74
2016-11-12T03:38:32.057Z,1010.66
2016-11-12T03:38:53.810Z,1010.74
2016-11-12T03:39:15.533Z,1010.81
2016-11-12T03:39:37.261Z,1010.77
2016-11-12T03:39:58.981Z,1010.78
2016-11-12T03:40:20.707Z,1010.79
2016-11-12T03:40:42.434Z,1010.81
2016-11-12T03:41:04.158Z,1010.72
2016-11-12T03:41:25.879Z,1010.66
2016-11-12T03:41:47.602Z,1010.63
2016-11-12T03:42:09.347Z,1010.65
2016-11-12T03:42:31.072Z,1010.62
2016-11-12T03:42:52.806Z,1010.70
2016-11-12T03:43:14.532Z,1010.73
2016-11-12T03:43:36.266Z,1010.74
2016-11-12T03:43:57.985Z,1010.77
2016-11-12T03:44:19.712Z,1010.82
2016-11-12T03:44:41.432Z,1010.76
2016-11-12T03:45:03.164Z,1010.74
2016-11-12T03:45:24.888Z,1010.72
2016-11-12T03:45:46.621Z,1010.62
2016-11-12T03:46:08.340Z,1010.71
2016-11-12T03:46:30.064Z,1010.75
2016-11-12T03:46:51.785Z,1010.82
2016-11-12T03:47:13.511Z,1010.89
2016-11-12T03:47:35.233Z,1010.75
2016-11-12T03:47:56.962Z,1010.80
2016-11-12T03:48:18.684Z,1010.71
2016-11-12T03:48:40.407Z,1010.69
2016-11-12T03:49:02.127Z,1010.74
2016-11-12T03:49:23.861Z,1010.66
2016-11-12T03:49:45.636Z,1010.73
2016-11-12T03:50:07.436Z,1010.78
2016-11-12T03:50:29.154Z,1010.73
2016-11-12T03:50:50.881Z,1010.68
2016-11-12T03:51:12.602Z,1010.76
2016-11-12T03:51:34.352Z,1010.74
2016-11-12T03:51:56.068Z,1010.73
2016-11-12T03:52:17.792Z,1010.65
2016-11-12T03:52:39.526Z,1010.66
2016-11-12T03:53:01.244Z,1010.78
2016-11-12T03:53:22.976Z,1010.73
2016-11-12T03:53:44.707Z,1010.75
2016-11-12T03:54:06.573Z,1010.71
2016-11-12T03:54:28.310Z,1010.72
2016-11-12T03:54:50.034Z,1010.62
2016-11-12T03:55:11.753Z,1010.68
2016-11-12T03:55:33.478Z,1010.76
2016-11-12T03:55:55.203Z,1010.66
2016-11-12T03:56:16.921Z,1010.69
2016-11-12T03:56:38.652Z,1010.59
2016-11-12T03:57:00.382Z,1010.62
2016-11-12T03:57:22.104Z,1010.57
2016-11-12T03:57:43.831Z,1010.64
2016-11-12T03:58:05.559Z,1010.75
2016-11-12T03:58:27.369Z,1010.71
2016-11-12T03:58:49.183Z,1010.70
2016-11-12T03:59:10.910Z,1010.72
2016-11-12T03:59:32.646Z,1010.73
2016-11-12T03:59:54.380Z,1010.72
2016-11-12T04:00:16.109Z,1010.82
2016-11-12T04:00:37.831Z,1010.84
2016-11-12T04:00:59.563Z,1010.69
2016-11-12T04:01:21.284Z,1010.65
2016-11-12T04:01:43.016Z,1010.60
2016-11-12T04:02:04.744Z,1010.65
2016-11-12T04:02:26.466Z,1010.63
2016-11-12T04:02:48.190Z,1010.71
2016-11-12T04:03:10.000Z,1010.60
2016-11-12T04:03:31.719Z,1010.73
2016-11-12T04:03:53.437Z,1010.68
2016-11-12T04:04:15.161Z,1010.67
2016-11-12T04:04:36.893Z,1010.68
2016-11-12T04:04:58.619Z,1010.63
2016-11-12T04:05:20.352Z,1010.73
2016-11-12T04:05:42.082Z,1010.68
2016-11-12T04:06:03.805Z,1010.58
2016-11-12T04:06:25.534Z,1010.64
2016-11-12T04:06:47.261Z,1010.71
2016-11-12T04:07:08.991Z,1010.72
2016-11-12T04:07:30.743Z,1010.68
2016-11-12T04:07:52.517Z,1010.60
2016-11-12T04:08:14.241Z,1010.64
2016-11-12T04:08:35.971Z,1010.59
2016-11-12T04:08:57.705Z,1010.75
2016-11-12T04:09:19.431Z,1010.75
2016-11-12T04:09:41.166Z,1010.67
2016-11-12T04:10:02.925Z,1010.62
2016-11-12T04:10:24.659Z,1010.59
2016-11-12T04:10:46.382Z,1010.54
2016-11-12T04:11:08.103Z,1010.66
2016-11-12T04:11:29.829Z,1010.68
2016-11-12T04:11:51.556Z,1010.65
2016-11-12T04:12:13.278Z,1010.52
2016-11-12T04:12:34.996Z,1010.56
2016-11-12T04:12:56.724Z,1010.62
2016-11-12T04:13:18.457Z,1010.59
2016-11-12T04:13:40.191Z,1010.60
2016-11-12T04:14:01.923Z,1010.56
2016-11-12T04:14:23.686Z,1010.64
2016-11-12T04:14:45.384Z,1010.55
2016-11-12T04:15:07.110Z,1010.80
2016-11-12T04:15:28.849Z,1010.74
2016-11-12T04:15:50.673Z,1010.76
2016-11-12T04:16:12.396Z,1010.72
2016-11-12T04:16:34.112Z,1010.72
2016-11-12T04:16:55.861Z,1010.72
2016-11-12T04:17:17.580Z,1010.67
2016-11-12T04:17:39.311Z,1010.77
2016-11-12T04:18:01.033Z,1010.73
2016-11-12T04:18:22.762Z,1010.78
2016-11-12T04:18:44.496Z,1010.89
2016-11-12T04:19:06.228Z,1010.84
2016-11-12T04:19:27.965Z,1010.76
2016-11-12T04:19:49.692Z,1010.73
2016-11-12T04:20:11.414Z,1010.68
2016-11-12T04:20:33.146Z,1010.67
2016-11-12T04:20:54.901Z,1010.74
2016-11-12T04:21:16.616Z,1010.57
2016-11-12T04:21:38.353Z,1010.60
2016-11-12T04:22:00.079Z,1010.64
2016-11-12T04:22:21.797Z,1010.67
2016-11-12T04:22:43.517Z,1010.67
2016-11-12T04:23:05.252Z,1010.78
2016-11-12T04:23:26.972Z,1010.79